Aeroporto :
LOGIN :

Iscrizione | Disclaimer

   EN    FR    IT 

 










Sommario :    VFR   VFR Marginale   IFR   IFR Intensivo   IFR Molto Intensivo
Visibilità : 
Base nubi : 
>= 8 km
>= 3000ft
5 / 8 km
1000 / 3000 ft
1500m / 5 km
500 / 1000 ft
800 / 1500m
200 / 500 ft
< 800m
< 200 ft
Simboli :   Temporali  Nebbia  Neve Forte  Precipitazioni Forti  Vento > 20 kt
SIGMETs :   Varie  Temporali  Ghiacco  Turbolenza  Onda orograficha  Ceneri Vulcaniche






- Altitudine del aeroporto : 50 ft
- Codice IATA : KOI


EGPA - Kirkwall

ULTIMO METAR :
  • 281250Z AUTO 28013KT 9999 BKN008/// OVC014/// 13/10 Q1031

METARs OBSOLETI :
  • 281220Z 27012KT 9999 BKN008 OVC015 13/10 Q1031
  • 281150Z 27013KT 9999 BKN004 OVC011 12/11 Q1031
  • 281120Z 27012KT 9999 -RA BKN004 BKN009 OVC015 13/11 Q1031
  • 281050Z 27012KT 9999 -RA SCT004 BKN009 OVC026 13/11 Q1031
  • 281020Z 24009KT 8000 -RA SCT005 BKN009 BKN012 13/12 Q1030

TAF TAF EGPA
Valido dal 28 a 09 ore il 28 a 18 ore UTC


280800Z 2809/2818 21010KT 9999 SCT004 BKN015
BECMG 2809/2812 27009KT
TEMPO 2809/2818 3000 -DZ BKN004
PROB30 2809/2818 1200 BR BKN001



MetMap, La meteo Aeronautica in un colpo d'occhio ! - Copyright ORBIFLY Dicembre 2007 - Disclaimer

ORBIFLY MET'MAP TEAM :

Programmazione e sviluppo : Alexandra Zaïnal
Concezione : Baudouin d'Aumeries
Aiuto per la programmazione : Marc-Olivier Méhu
Supporto tecnico e logistico : Manuel Goepfert
Aiuto per la traduzione : Arnaldo La Scala

Contatto : metmap@orbifly.com




FONTI E CREDITI :

   NOAA